FWG117 LCPH-LGSA
Flight info
| Callsign | FWG117 |
|---|---|
| Flight time | 1h 6m |
| Altitude | 36000 |
| Route | GENOS DCT TOSKA UM978 SIT/N0468F320 UN1 BAVES |
| Aircraft | A320/M-SDE3FGHIRWY/LB1 |
Departure
| Time | 2026-05-06 18:10 |
|---|---|
| Airport | Paphos International Airport (LCPH) |
Arrival
| Time | 2026-05-06 19:16 |
|---|---|
| Airport | Chania International Airport (LGSA) |
| Time | Latitude | Longitude | Altitude | Speed | Heading |
|---|---|---|---|---|---|
| 2026-05-06 17:48 | 34.71306 | 32.48666 | 46 ft | 0 kts | 153° |
| 2026-05-06 18:02 | 34.71324 | 32.48655 | 46 ft | 4 kts | 155° |
| 2026-05-06 18:02 | 34.71349 | 32.48642 | 46 ft | 4 kts | 154° |
| 2026-05-06 18:02 | 34.71371 | 32.48624 | 44 ft | 4 kts | 127° |
| 2026-05-06 18:02 | 34.71378 | 32.48598 | 46 ft | 3 kts | 68° |
| 2026-05-06 18:03 | 34.71377 | 32.48595 | 46 ft | 0 kts | 65° |
| 2026-05-06 18:04 | 34.71378 | 32.48596 | 46 ft | 1 kts | 65° |
| 2026-05-06 18:04 | 34.71394 | 32.48640 | 45 ft | 9 kts | 65° |
| 2026-05-06 18:04 | 34.71423 | 32.48716 | 46 ft | 11 kts | 66° |
| 2026-05-06 18:05 | 34.71458 | 32.48810 | 46 ft | 13 kts | 66° |
| 2026-05-06 18:05 | 34.71496 | 32.48884 | 46 ft | 10 kts | 94° |
| 2026-05-06 18:05 | 34.71528 | 32.48963 | 46 ft | 11 kts | 36° |
| 2026-05-06 18:05 | 34.71536 | 32.48969 | 46 ft | 0 kts | 32° |
| 2026-05-06 18:06 | 34.71558 | 32.48983 | 46 ft | 5 kts | 27° |
| 2026-05-06 18:06 | 34.71595 | 32.49002 | 47 ft | 6 kts | 22° |
| 2026-05-06 18:07 | 34.71627 | 32.49049 | 48 ft | 9 kts | 70° |
| 2026-05-06 18:07 | 34.71616 | 32.49148 | 47 ft | 14 kts | 109° |
| 2026-05-06 18:07 | 34.71577 | 32.49266 | 46 ft | 17 kts | 110° |
| 2026-05-06 18:07 | 34.71535 | 32.49416 | 43 ft | 20 kts | 114° |
| 2026-05-06 18:08 | 34.71489 | 32.49563 | 44 ft | 14 kts | 110° |
| 2026-05-06 18:08 | 34.71451 | 32.49685 | 43 ft | 16 kts | 111° |
| 2026-05-06 18:08 | 34.71377 | 32.49779 | 44 ft | 15 kts | 133° |
| 2026-05-06 18:08 | 34.71397 | 32.49838 | 44 ft | 6 kts | 308° |
| 2026-05-06 18:09 | 34.71418 | 32.49787 | 64 ft | 5 kts | 298° |
| 2026-05-06 18:09 | 34.71430 | 32.49754 | 38 ft | 23 kts | 292° |
| 2026-05-06 18:09 | 34.71603 | 32.49192 | 45 ft | 114 kts | 290° |
| 2026-05-06 18:09 | 34.71967 | 32.48009 | 48 ft | 181 kts | 291° |
| 2026-05-06 18:10 | 34.72441 | 32.46437 | 527 ft | 207 kts | 290° |
| 2026-05-06 18:10 | 34.72660 | 32.44751 | 1706 ft | 202 kts | 265° |
| 2026-05-06 18:10 | 34.72369 | 32.43031 | 2627 ft | 216 kts | 255° |
| 2026-05-06 18:10 | 34.71898 | 32.41217 | 3433 ft | 235 kts | 252° |
| 2026-05-06 18:11 | 34.71369 | 32.39296 | 4504 ft | 242 kts | 253° |
| 2026-05-06 18:11 | 34.70842 | 32.37334 | 5609 ft | 247 kts | 253° |
| 2026-05-06 18:11 | 34.70327 | 32.35325 | 6728 ft | 250 kts | 254° |
| 2026-05-06 18:11 | 34.69824 | 32.33281 | 7795 ft | 254 kts | 255° |
| 2026-05-06 18:12 | 34.69331 | 32.31208 | 8873 ft | 257 kts | 256° |
| 2026-05-06 18:12 | 34.68842 | 32.29109 | 9947 ft | 260 kts | 256° |
| 2026-05-06 18:12 | 34.68349 | 32.26983 | 10894 ft | 263 kts | 257° |
| 2026-05-06 18:12 | 34.67852 | 32.24823 | 11687 ft | 269 kts | 257° |
| 2026-05-06 18:13 | 34.67334 | 32.22533 | 11956 ft | 292 kts | 257° |
| 2026-05-06 18:13 | 34.66781 | 32.20080 | 12159 ft | 315 kts | 257° |
| 2026-05-06 18:13 | 34.66289 | 32.17374 | 12315 ft | 336 kts | 265° |
| 2026-05-06 18:13 | 34.66192 | 32.14467 | 12516 ft | 353 kts | 275° |
| 2026-05-06 18:14 | 34.66407 | 32.11503 | 13049 ft | 359 kts | 277° |
| 2026-05-06 18:14 | 34.66627 | 32.08465 | 13715 ft | 363 kts | 277° |
| 2026-05-06 18:14 | 34.66841 | 32.05390 | 14338 ft | 366 kts | 277° |
| 2026-05-06 18:14 | 34.67054 | 32.02302 | 14956 ft | 368 kts | 277° |
| 2026-05-06 18:15 | 34.67266 | 31.99185 | 15581 ft | 370 kts | 277° |
| 2026-05-06 18:15 | 34.67475 | 31.96065 | 16206 ft | 372 kts | 277° |
| 2026-05-06 18:15 | 34.67688 | 31.92930 | 16851 ft | 374 kts | 277° |
| 2026-05-06 18:15 | 34.67940 | 31.89774 | 17494 ft | 375 kts | 281° |
| 2026-05-06 18:16 | 34.68432 | 31.86657 | 18159 ft | 377 kts | 283° |
| 2026-05-06 18:16 | 34.68939 | 31.83520 | 18767 ft | 379 kts | 283° |
| 2026-05-06 18:16 | 34.69445 | 31.80366 | 19343 ft | 381 kts | 282° |
| 2026-05-06 18:16 | 34.69950 | 31.77189 | 19911 ft | 384 kts | 282° |
| 2026-05-06 18:17 | 34.70454 | 31.73992 | 20465 ft | 386 kts | 282° |
| 2026-05-06 18:17 | 34.70963 | 31.70773 | 20994 ft | 389 kts | 282° |
| 2026-05-06 18:17 | 34.71476 | 31.67543 | 21496 ft | 391 kts | 282° |
| 2026-05-06 18:17 | 34.71993 | 31.64282 | 21982 ft | 393 kts | 282° |
| 2026-05-06 18:18 | 34.72502 | 31.61045 | 22440 ft | 396 kts | 282° |
| 2026-05-06 18:18 | 34.73018 | 31.57754 | 22899 ft | 398 kts | 282° |
| 2026-05-06 18:18 | 34.73538 | 31.54436 | 23342 ft | 400 kts | 282° |
| 2026-05-06 18:18 | 34.74059 | 31.51108 | 23751 ft | 402 kts | 282° |
| 2026-05-06 18:19 | 34.74585 | 31.47755 | 24113 ft | 404 kts | 282° |
| 2026-05-06 18:19 | 34.75111 | 31.44388 | 24482 ft | 406 kts | 282° |
| 2026-05-06 18:19 | 34.75634 | 31.41012 | 24845 ft | 407 kts | 282° |
| 2026-05-06 18:19 | 34.76157 | 31.37630 | 25215 ft | 408 kts | 282° |
| 2026-05-06 18:20 | 34.76682 | 31.34226 | 25575 ft | 409 kts | 282° |
| 2026-05-06 18:20 | 34.77208 | 31.30818 | 25948 ft | 411 kts | 282° |
| 2026-05-06 18:20 | 34.77735 | 31.27398 | 26312 ft | 412 kts | 282° |
| 2026-05-06 18:20 | 34.78264 | 31.23967 | 26672 ft | 413 kts | 282° |
| 2026-05-06 18:21 | 34.78793 | 31.20525 | 27021 ft | 415 kts | 283° |
| 2026-05-06 18:21 | 34.79322 | 31.17065 | 27330 ft | 416 kts | 283° |
| 2026-05-06 18:21 | 34.79850 | 31.13602 | 27748 ft | 416 kts | 283° |
| 2026-05-06 18:21 | 34.80376 | 31.10152 | 28220 ft | 414 kts | 283° |
| 2026-05-06 18:22 | 34.80901 | 31.06709 | 28714 ft | 412 kts | 283° |
| 2026-05-06 18:22 | 34.81417 | 31.03337 | 29234 ft | 409 kts | 283° |
| 2026-05-06 18:22 | 34.81934 | 30.99941 | 29761 ft | 407 kts | 283° |
| 2026-05-06 18:22 | 34.82449 | 30.96553 | 30052 ft | 406 kts | 283° |
| 2026-05-06 18:23 | 34.83487 | 30.89718 | 30094 ft | 412 kts | 283° |
| 2026-05-06 18:23 | 34.84527 | 30.82837 | 30096 ft | 414 kts | 283° |
| 2026-05-06 18:24 | 34.85558 | 30.75935 | 30094 ft | 414 kts | 283° |
| 2026-05-06 18:24 | 34.86581 | 30.69080 | 30094 ft | 415 kts | 283° |
| 2026-05-06 18:25 | 34.87605 | 30.62166 | 30093 ft | 415 kts | 283° |
| 2026-05-06 18:25 | 34.88624 | 30.55244 | 30086 ft | 415 kts | 283° |
| 2026-05-06 18:26 | 34.89645 | 30.48328 | 30081 ft | 415 kts | 283° |
| 2026-05-06 18:26 | 34.90675 | 30.41393 | 30079 ft | 416 kts | 283° |
| 2026-05-06 18:27 | 34.91693 | 30.34448 | 30079 ft | 416 kts | 283° |
| 2026-05-06 18:27 | 34.92697 | 30.27502 | 30083 ft | 417 kts | 283° |
| 2026-05-06 18:28 | 34.93704 | 30.20541 | 30084 ft | 417 kts | 283° |
| 2026-05-06 18:28 | 34.94715 | 30.13573 | 30080 ft | 418 kts | 283° |
| 2026-05-06 18:29 | 34.95719 | 30.06640 | 30081 ft | 418 kts | 283° |
| 2026-05-06 18:29 | 34.96675 | 29.99645 | 30086 ft | 420 kts | 278° |
| 2026-05-06 18:30 | 34.96992 | 29.92510 | 30084 ft | 421 kts | 276° |
| 2026-05-06 18:30 | 34.97281 | 29.85372 | 30080 ft | 422 kts | 276° |
| 2026-05-06 18:31 | 34.97567 | 29.78224 | 30080 ft | 422 kts | 276° |
| 2026-05-06 18:31 | 34.97859 | 29.71070 | 30081 ft | 422 kts | 276° |
| 2026-05-06 18:32 | 34.98147 | 29.63953 | 30078 ft | 423 kts | 276° |
| 2026-05-06 18:32 | 34.98424 | 29.56778 | 30077 ft | 424 kts | 276° |
| 2026-05-06 18:33 | 34.98698 | 29.49594 | 30075 ft | 424 kts | 276° |
| 2026-05-06 18:33 | 34.98973 | 29.42405 | 30080 ft | 425 kts | 276° |
| 2026-05-06 18:34 | 34.99239 | 29.35204 | 30083 ft | 425 kts | 276° |
| 2026-05-06 18:34 | 34.99508 | 29.27993 | 30082 ft | 426 kts | 276° |
| 2026-05-06 18:35 | 34.99785 | 29.20781 | 30081 ft | 426 kts | 276° |
| 2026-05-06 18:35 | 35.00044 | 29.13550 | 30083 ft | 427 kts | 276° |
| 2026-05-06 18:36 | 35.00293 | 29.06316 | 30080 ft | 427 kts | 276° |
| 2026-05-06 18:36 | 35.00538 | 28.99108 | 30075 ft | 428 kts | 276° |
| 2026-05-06 18:37 | 35.00742 | 28.93032 | 30082 ft | 428 kts | 276° |
| 2026-05-06 18:37 | 35.01027 | 28.84587 | 30083 ft | 429 kts | 275° |
| 2026-05-06 18:38 | 35.01267 | 28.77315 | 30079 ft | 429 kts | 275° |
| 2026-05-06 18:38 | 35.01500 | 28.70033 | 30078 ft | 430 kts | 275° |
| 2026-05-06 18:39 | 35.01728 | 28.62747 | 30079 ft | 430 kts | 275° |
| 2026-05-06 18:40 | 35.02065 | 28.51801 | 30088 ft | 430 kts | 275° |
| 2026-05-06 18:40 | 35.02283 | 28.44492 | 30081 ft | 431 kts | 275° |
| 2026-05-06 18:41 | 35.02500 | 28.37185 | 30082 ft | 431 kts | 275° |
| 2026-05-06 18:41 | 35.02706 | 28.29862 | 30081 ft | 432 kts | 275° |
| 2026-05-06 18:42 | 35.02900 | 28.22581 | 30091 ft | 432 kts | 275° |
| 2026-05-06 18:42 | 35.03100 | 28.15244 | 30088 ft | 433 kts | 275° |
| 2026-05-06 18:43 | 35.03303 | 28.07892 | 30087 ft | 433 kts | 275° |
| 2026-05-06 18:43 | 35.03492 | 28.00544 | 30087 ft | 433 kts | 275° |
| 2026-05-06 18:44 | 35.03647 | 27.94442 | 30088 ft | 433 kts | 275° |
| 2026-05-06 18:44 | 35.03834 | 27.87083 | 30087 ft | 433 kts | 275° |
| 2026-05-06 18:45 | 35.04009 | 27.79725 | 30089 ft | 434 kts | 274° |
| 2026-05-06 18:45 | 35.04178 | 27.72369 | 30089 ft | 434 kts | 274° |
| 2026-05-06 18:46 | 35.04350 | 27.65003 | 30082 ft | 434 kts | 274° |
| 2026-05-06 18:46 | 35.04521 | 27.57632 | 30087 ft | 435 kts | 274° |
| 2026-05-06 18:47 | 35.04684 | 27.50252 | 30088 ft | 436 kts | 274° |
| 2026-05-06 18:47 | 35.04842 | 27.42855 | 30091 ft | 436 kts | 274° |
| 2026-05-06 18:48 | 35.04999 | 27.35498 | 30094 ft | 437 kts | 274° |
| 2026-05-06 18:48 | 35.05150 | 27.28080 | 30099 ft | 437 kts | 274° |
| 2026-05-06 18:49 | 35.05296 | 27.20664 | 30096 ft | 437 kts | 274° |
| 2026-05-06 18:49 | 35.05436 | 27.13238 | 30096 ft | 438 kts | 274° |
| 2026-05-06 18:50 | 35.05574 | 27.05806 | 30098 ft | 438 kts | 274° |
| 2026-05-06 18:50 | 35.05707 | 26.98373 | 30097 ft | 438 kts | 274° |
| 2026-05-06 18:51 | 35.05834 | 26.90942 | 30096 ft | 438 kts | 274° |
| 2026-05-06 18:51 | 35.05960 | 26.83495 | 30094 ft | 439 kts | 274° |
| 2026-05-06 18:52 | 35.06079 | 26.76095 | 30096 ft | 439 kts | 274° |
| 2026-05-06 18:52 | 35.06190 | 26.68829 | 30100 ft | 439 kts | 274° |
| 2026-05-06 18:53 | 35.06302 | 26.61374 | 30099 ft | 439 kts | 274° |
| 2026-05-06 18:53 | 35.06409 | 26.53918 | 30099 ft | 439 kts | 273° |
| 2026-05-06 18:54 | 35.06506 | 26.46456 | 30098 ft | 439 kts | 273° |
| 2026-05-06 18:54 | 35.06601 | 26.38995 | 30099 ft | 439 kts | 273° |
| 2026-05-06 18:55 | 35.06697 | 26.31532 | 30098 ft | 440 kts | 273° |
| 2026-05-06 18:55 | 35.06785 | 26.24066 | 30097 ft | 440 kts | 273° |
| 2026-05-06 18:56 | 35.07469 | 26.16749 | 30093 ft | 436 kts | 287° |
| 2026-05-06 18:56 | 35.09383 | 26.09728 | 30089 ft | 436 kts | 290° |
| 2026-05-06 18:57 | 35.11320 | 26.02703 | 30096 ft | 436 kts | 289° |
| 2026-05-06 18:57 | 35.13242 | 25.95664 | 30099 ft | 437 kts | 289° |
| 2026-05-06 18:58 | 35.15158 | 25.88612 | 30095 ft | 437 kts | 289° |
| 2026-05-06 18:58 | 35.17084 | 25.81559 | 30092 ft | 438 kts | 289° |
| 2026-05-06 18:59 | 35.19012 | 25.74496 | 30101 ft | 438 kts | 289° |
| 2026-05-06 18:59 | 35.20928 | 25.67428 | 29656 ft | 436 kts | 289° |
| 2026-05-06 18:59 | 35.21865 | 25.63967 | 28414 ft | 431 kts | 289° |
| 2026-05-06 19:00 | 35.22796 | 25.60515 | 27225 ft | 423 kts | 289° |
| 2026-05-06 19:00 | 35.23713 | 25.57119 | 26111 ft | 418 kts | 289° |
| 2026-05-06 19:00 | 35.24634 | 25.53722 | 25036 ft | 423 kts | 290° |
| 2026-05-06 19:00 | 35.25565 | 25.50285 | 23997 ft | 428 kts | 290° |
| 2026-05-06 19:01 | 35.26500 | 25.46827 | 22833 ft | 426 kts | 290° |
| 2026-05-06 19:01 | 35.27423 | 25.43404 | 21690 ft | 420 kts | 290° |
| 2026-05-06 19:01 | 35.28338 | 25.40005 | 20796 ft | 420 kts | 289° |
| 2026-05-06 19:01 | 35.29245 | 25.36621 | 19917 ft | 418 kts | 289° |
| 2026-05-06 19:02 | 35.30148 | 25.33245 | 19055 ft | 416 kts | 289° |
| 2026-05-06 19:02 | 35.31044 | 25.29889 | 18162 ft | 414 kts | 289° |
| 2026-05-06 19:02 | 35.31935 | 25.26551 | 17254 ft | 410 kts | 289° |
| 2026-05-06 19:02 | 35.32818 | 25.23244 | 16408 ft | 407 kts | 289° |
| 2026-05-06 19:03 | 35.33694 | 25.19954 | 15564 ft | 406 kts | 289° |
| 2026-05-06 19:03 | 35.34432 | 25.16619 | 14746 ft | 405 kts | 284° |
| 2026-05-06 19:03 | 35.35049 | 25.13258 | 13957 ft | 404 kts | 284° |
| 2026-05-06 19:03 | 35.35666 | 25.09907 | 13140 ft | 402 kts | 284° |
| 2026-05-06 19:04 | 35.36271 | 25.06630 | 12410 ft | 398 kts | 284° |
| 2026-05-06 19:04 | 35.36885 | 25.03302 | 11684 ft | 394 kts | 284° |
| 2026-05-06 19:04 | 35.37472 | 25.00103 | 11348 ft | 381 kts | 284° |
| 2026-05-06 19:04 | 35.38034 | 24.97018 | 11219 ft | 362 kts | 284° |
| 2026-05-06 19:05 | 35.38568 | 24.94079 | 11096 ft | 345 kts | 284° |
| 2026-05-06 19:05 | 35.39078 | 24.91272 | 10971 ft | 330 kts | 284° |
| 2026-05-06 19:05 | 35.39570 | 24.88576 | 10843 ft | 317 kts | 284° |
| 2026-05-06 19:05 | 35.40047 | 24.85981 | 10708 ft | 307 kts | 284° |
| 2026-05-06 19:06 | 35.40510 | 24.83467 | 10569 ft | 298 kts | 284° |
| 2026-05-06 19:06 | 35.40958 | 24.81026 | 10437 ft | 290 kts | 284° |
| 2026-05-06 19:06 | 35.41391 | 24.78646 | 10311 ft | 282 kts | 284° |
| 2026-05-06 19:06 | 35.41810 | 24.76336 | 10191 ft | 274 kts | 284° |
| 2026-05-06 19:07 | 35.42218 | 24.74084 | 10071 ft | 267 kts | 284° |
| 2026-05-06 19:07 | 35.42615 | 24.71888 | 9874 ft | 261 kts | 284° |
| 2026-05-06 19:07 | 35.43006 | 24.69734 | 9407 ft | 257 kts | 284° |
| 2026-05-06 19:07 | 35.43390 | 24.67605 | 9022 ft | 255 kts | 283° |
| 2026-05-06 19:08 | 35.43769 | 24.65503 | 8667 ft | 256 kts | 283° |
| 2026-05-06 19:08 | 35.44159 | 24.63335 | 8311 ft | 257 kts | 283° |
| 2026-05-06 19:08 | 35.44540 | 24.61211 | 7953 ft | 258 kts | 283° |
| 2026-05-06 19:08 | 35.44925 | 24.59065 | 7666 ft | 257 kts | 283° |
| 2026-05-06 19:09 | 35.45303 | 24.56944 | 7281 ft | 252 kts | 283° |
| 2026-05-06 19:09 | 35.45675 | 24.54861 | 6916 ft | 249 kts | 283° |
| 2026-05-06 19:09 | 35.46050 | 24.52774 | 6561 ft | 251 kts | 283° |
| 2026-05-06 19:09 | 35.46426 | 24.50675 | 6189 ft | 253 kts | 282° |
| 2026-05-06 19:10 | 35.46802 | 24.48568 | 5853 ft | 252 kts | 282° |
| 2026-05-06 19:10 | 35.47176 | 24.46473 | 5555 ft | 251 kts | 282° |
| 2026-05-06 19:10 | 35.47548 | 24.44393 | 5254 ft | 249 kts | 282° |
| 2026-05-06 19:10 | 35.47918 | 24.42321 | 4941 ft | 248 kts | 282° |
| 2026-05-06 19:11 | 35.48285 | 24.40254 | 4622 ft | 247 kts | 282° |
| 2026-05-06 19:11 | 35.48645 | 24.38210 | 4328 ft | 244 kts | 282° |
| 2026-05-06 19:11 | 35.48998 | 24.36222 | 3870 ft | 229 kts | 282° |
| 2026-05-06 19:11 | 35.49306 | 24.34485 | 3508 ft | 190 kts | 282° |
| 2026-05-06 19:12 | 35.49566 | 24.33021 | 3282 ft | 161 kts | 282° |
| 2026-05-06 19:12 | 35.49788 | 24.31773 | 3235 ft | 144 kts | 282° |
| 2026-05-06 19:12 | 35.49996 | 24.30597 | 3239 ft | 142 kts | 282° |
| 2026-05-06 19:12 | 35.50208 | 24.29411 | 3178 ft | 144 kts | 282° |
| 2026-05-06 19:13 | 35.50443 | 24.28206 | 2839 ft | 142 kts | 283° |
| 2026-05-06 19:13 | 35.50687 | 24.27056 | 2519 ft | 141 kts | 284° |
| 2026-05-06 19:13 | 35.50940 | 24.25903 | 2153 ft | 140 kts | 284° |
| 2026-05-06 19:13 | 35.51165 | 24.24743 | 1784 ft | 138 kts | 277° |
| 2026-05-06 19:14 | 35.51240 | 24.23569 | 1553 ft | 139 kts | 273° |
| 2026-05-06 19:14 | 35.51364 | 24.22393 | 1363 ft | 139 kts | 279° |
| 2026-05-06 19:14 | 35.51521 | 24.21217 | 1206 ft | 140 kts | 272° |
| 2026-05-06 19:14 | 35.51650 | 24.20036 | 1163 ft | 142 kts | 281° |
| 2026-05-06 19:15 | 35.51910 | 24.18866 | 946 ft | 141 kts | 288° |
| 2026-05-06 19:15 | 35.52254 | 24.17741 | 749 ft | 141 kts | 292° |
| 2026-05-06 19:15 | 35.52628 | 24.16642 | 552 ft | 139 kts | 292° |
| 2026-05-06 19:15 | 35.52973 | 24.15582 | 475 ft | 115 kts | 291° |
| 2026-05-06 19:16 | 35.53177 | 24.14965 | 466 ft | 66 kts | 291° |
| 2026-05-06 19:16 | 35.53326 | 24.14502 | 457 ft | 30 kts | 292° |
| 2026-05-06 19:16 | 35.53394 | 24.14314 | 455 ft | 19 kts | 313° |
| 2026-05-06 19:16 | 35.53497 | 24.14290 | 456 ft | 16 kts | 18° |
| 2026-05-06 19:17 | 35.53793 | 24.14041 | 454 ft | 23 kts | 26° |
| 2026-05-06 19:20 | 35.53800 | 24.14041 | 452 ft | 1 kts | 354° |
| 2026-05-06 19:20 | 35.53823 | 24.14019 | 453 ft | 7 kts | 310° |
| 2026-05-06 19:20 | 35.53853 | 24.13953 | 451 ft | 11 kts | 293° |
| 2026-05-06 19:20 | 35.53873 | 24.13892 | 452 ft | 1 kts | 292° |
| 2026-05-06 19:21 | 35.53869 | 24.13842 | 453 ft | 94 kts | 21° |
| 2026-05-06 19:22 | 35.53875 | 24.13853 | 451 ft | 7 kts | 33° |
| 2026-05-06 19:24 | 35.53880 | 24.13855 | 451 ft | 3 kts | 21° |
| 2026-05-06 19:24 | 35.53904 | 24.13860 | 452 ft | 4 kts | 11° |
| 2026-05-06 19:24 | 35.53924 | 24.13868 | 452 ft | 0 kts | 23° |